sensor_id;sensor_type;location;lat;lon;timestamp;P1;durP1;ratioP1;P2;durP2;ratioP2
7473;SDS011;3778;42.572;23.426;2022-07-10T00:00:16;13.90;;;9.83;;
7473;SDS011;3778;42.572;23.426;2022-07-10T00:02:47;15.90;;;11.30;;
7473;SDS011;3778;42.572;23.426;2022-07-10T00:05:14;13.73;;;10.00;;
7473;SDS011;3778;42.572;23.426;2022-07-10T00:07:41;16.47;;;11.00;;
7473;SDS011;3778;42.572;23.426;2022-07-10T00:10:07;11.37;;;9.47;;
7473;SDS011;3778;42.572;23.426;2022-07-10T00:12:34;12.93;;;9.43;;
7473;SDS011;3778;42.572;23.426;2022-07-10T00:15:01;10.97;;;9.73;;
7473;SDS011;3778;42.572;23.426;2022-07-10T00:17:28;13.40;;;10.27;;
7473;SDS011;3778;42.572;23.426;2022-07-10T00:19:56;12.53;;;9.87;;
7473;SDS011;3778;42.572;23.426;2022-07-10T00:22:23;11.50;;;9.93;;
7473;SDS011;3778;42.572;23.426;2022-07-10T00:24:50;15.73;;;10.13;;
7473;SDS011;3778;42.572;23.426;2022-07-10T00:27:17;17.37;;;10.43;;
7473;SDS011;3778;42.572;23.426;2022-07-10T00:29:44;12.70;;;10.23;;
7473;SDS011;3778;42.572;23.426;2022-07-10T00:32:11;13.47;;;11.37;;
7473;SDS011;3778;42.572;23.426;2022-07-10T00:34:38;12.97;;;9.73;;
7473;SDS011;3778;42.572;23.426;2022-07-10T00:37:06;15.20;;;10.23;;
7473;SDS011;3778;42.572;23.426;2022-07-10T00:39:33;13.10;;;10.20;;
7473;SDS011;3778;42.572;23.426;2022-07-10T00:42:06;11.77;;;9.60;;
7473;SDS011;3778;42.572;23.426;2022-07-10T00:44:34;18.27;;;9.90;;
7473;SDS011;3778;42.572;23.426;2022-07-10T00:47:02;12.07;;;9.47;;
7473;SDS011;3778;42.572;23.426;2022-07-10T00:49:29;17.30;;;9.53;;
7473;SDS011;3778;42.572;23.426;2022-07-10T00:51:56;13.77;;;10.10;;
7473;SDS011;3778;42.572;23.426;2022-07-10T00:54:27;14.73;;;10.37;;
7473;SDS011;3778;42.572;23.426;2022-07-10T00:56:55;15.37;;;9.57;;
7473;SDS011;3778;42.572;23.426;2022-07-10T00:59:23;10.07;;;8.97;;
7473;SDS011;3778;42.572;23.426;2022-07-10T01:01:51;12.87;;;10.10;;
7473;SDS011;3778;42.572;23.426;2022-07-10T01:04:18;14.30;;;9.87;;
7473;SDS011;3778;42.572;23.426;2022-07-10T01:06:45;12.17;;;9.40;;
7473;SDS011;3778;42.572;23.426;2022-07-10T01:09:12;15.17;;;9.67;;
7473;SDS011;3778;42.572;23.426;2022-07-10T01:11:40;10.70;;;9.17;;
7473;SDS011;3778;42.572;23.426;2022-07-10T01:14:07;13.10;;;10.00;;
7473;SDS011;3778;42.572;23.426;2022-07-10T01:16:35;16.23;;;10.47;;
7473;SDS011;3778;42.572;23.426;2022-07-10T01:19:03;15.43;;;12.60;;
7473;SDS011;3778;42.572;23.426;2022-07-10T01:21:33;14.53;;;10.23;;
7473;SDS011;3778;42.572;23.426;2022-07-10T01:24:03;14.37;;;10.20;;
7473;SDS011;3778;42.572;23.426;2022-07-10T01:26:32;16.20;;;11.47;;
7473;SDS011;3778;42.572;23.426;2022-07-10T01:29:01;14.87;;;10.67;;
7473;SDS011;3778;42.572;23.426;2022-07-10T01:31:30;12.33;;;10.70;;
7473;SDS011;3778;42.572;23.426;2022-07-10T01:33:56;12.47;;;10.00;;
7473;SDS011;3778;42.572;23.426;2022-07-10T01:36:25;12.77;;;9.90;;
7473;SDS011;3778;42.572;23.426;2022-07-10T01:38:55;11.23;;;9.23;;
7473;SDS011;3778;42.572;23.426;2022-07-10T01:41:23;19.20;;;9.97;;
7473;SDS011;3778;42.572;23.426;2022-07-10T01:43:51;13.97;;;10.30;;
7473;SDS011;3778;42.572;23.426;2022-07-10T01:46:18;11.80;;;9.03;;
7473;SDS011;3778;42.572;23.426;2022-07-10T01:48:45;10.97;;;9.60;;
7473;SDS011;3778;42.572;23.426;2022-07-10T01:51:13;13.87;;;9.73;;
7473;SDS011;3778;42.572;23.426;2022-07-10T01:53:40;16.10;;;10.33;;
7473;SDS011;3778;42.572;23.426;2022-07-10T01:56:09;13.17;;;10.63;;
7473;SDS011;3778;42.572;23.426;2022-07-10T01:58:37;12.10;;;10.47;;
7473;SDS011;3778;42.572;23.426;2022-07-10T02:01:04;14.93;;;9.27;;
7473;SDS011;3778;42.572;23.426;2022-07-10T02:03:32;14.87;;;8.93;;
7473;SDS011;3778;42.572;23.426;2022-07-10T02:06:17;11.40;;;9.03;;
7473;SDS011;3778;42.572;23.426;2022-07-10T02:08:44;12.10;;;9.57;;
7473;SDS011;3778;42.572;23.426;2022-07-10T02:11:12;10.30;;;8.97;;
7473;SDS011;3778;42.572;23.426;2022-07-10T02:13:39;11.03;;;9.83;;
7473;SDS011;3778;42.572;23.426;2022-07-10T02:16:06;13.43;;;10.23;;
7473;SDS011;3778;42.572;23.426;2022-07-10T02:18:33;12.47;;;9.40;;
7473;SDS011;3778;42.572;23.426;2022-07-10T02:21:00;13.07;;;9.87;;
7473;SDS011;3778;42.572;23.426;2022-07-10T02:23:27;21.17;;;10.20;;
7473;SDS011;3778;42.572;23.426;2022-07-10T02:25:54;13.23;;;10.20;;
7473;SDS011;3778;42.572;23.426;2022-07-10T02:28:22;12.70;;;9.27;;
7473;SDS011;3778;42.572;23.426;2022-07-10T02:30:49;12.10;;;9.77;;
7473;SDS011;3778;42.572;23.426;2022-07-10T02:33:15;12.93;;;10.27;;
7473;SDS011;3778;42.572;23.426;2022-07-10T02:35:42;11.27;;;10.07;;
7473;SDS011;3778;42.572;23.426;2022-07-10T02:38:09;12.67;;;9.43;;
7473;SDS011;3778;42.572;23.426;2022-07-10T02:40:35;14.13;;;9.57;;
7473;SDS011;3778;42.572;23.426;2022-07-10T02:43:02;15.83;;;9.60;;
7473;SDS011;3778;42.572;23.426;2022-07-10T02:45:30;12.07;;;8.87;;
7473;SDS011;3778;42.572;23.426;2022-07-10T02:47:57;13.80;;;9.53;;
7473;SDS011;3778;42.572;23.426;2022-07-10T02:50:24;14.80;;;9.53;;
7473;SDS011;3778;42.572;23.426;2022-07-10T02:52:50;12.83;;;10.37;;
7473;SDS011;3778;42.572;23.426;2022-07-10T02:55:17;13.53;;;9.63;;
7473;SDS011;3778;42.572;23.426;2022-07-10T02:57:44;12.93;;;10.30;;
7473;SDS011;3778;42.572;23.426;2022-07-10T03:00:11;12.57;;;9.97;;
7473;SDS011;3778;42.572;23.426;2022-07-10T03:02:40;11.47;;;9.80;;
7473;SDS011;3778;42.572;23.426;2022-07-10T03:05:07;23.80;;;9.93;;
7473;SDS011;3778;42.572;23.426;2022-07-10T03:07:34;12.50;;;9.53;;
7473;SDS011;3778;42.572;23.426;2022-07-10T03:10:01;10.40;;;8.80;;
7473;SDS011;3778;42.572;23.426;2022-07-10T03:12:28;12.57;;;8.43;;
7473;SDS011;3778;42.572;23.426;2022-07-10T03:14:55;12.53;;;8.80;;
7473;SDS011;3778;42.572;23.426;2022-07-10T03:17:22;11.37;;;9.43;;
7473;SDS011;3778;42.572;23.426;2022-07-10T03:19:50;12.47;;;9.23;;
7473;SDS011;3778;42.572;23.426;2022-07-10T03:22:17;10.10;;;8.90;;
7473;SDS011;3778;42.572;23.426;2022-07-10T03:24:43;13.93;;;8.63;;
7473;SDS011;3778;42.572;23.426;2022-07-10T03:27:11;12.97;;;8.77;;
7473;SDS011;3778;42.572;23.426;2022-07-10T03:29:38;10.87;;;9.33;;
7473;SDS011;3778;42.572;23.426;2022-07-10T03:32:06;13.20;;;9.57;;
7473;SDS011;3778;42.572;23.426;2022-07-10T03:34:33;11.80;;;9.13;;
7473;SDS011;3778;42.572;23.426;2022-07-10T03:37:02;14.43;;;9.17;;
7473;SDS011;3778;42.572;23.426;2022-07-10T03:39:29;10.77;;;9.67;;
7473;SDS011;3778;42.572;23.426;2022-07-10T03:41:55;12.03;;;8.40;;
7473;SDS011;3778;42.572;23.426;2022-07-10T03:44:22;10.27;;;8.87;;
7473;SDS011;3778;42.572;23.426;2022-07-10T03:46:49;10.27;;;8.57;;
7473;SDS011;3778;42.572;23.426;2022-07-10T03:49:16;13.73;;;8.63;;
7473;SDS011;3778;42.572;23.426;2022-07-10T03:51:42;15.07;;;9.87;;
7473;SDS011;3778;42.572;23.426;2022-07-10T03:54:11;13.03;;;8.47;;
7473;SDS011;3778;42.572;23.426;2022-07-10T03:56:37;15.73;;;8.93;;
7473;SDS011;3778;42.572;23.426;2022-07-10T03:59:22;10.03;;;8.97;;
7473;SDS011;3778;42.572;23.426;2022-07-10T04:01:48;12.07;;;8.40;;
7473;SDS011;3778;42.572;23.426;2022-07-10T04:04:15;12.40;;;8.37;;
7473;SDS011;3778;42.572;23.426;2022-07-10T04:06:42;10.80;;;8.07;;
7473;SDS011;3778;42.572;23.426;2022-07-10T04:09:09;10.43;;;7.57;;
7473;SDS011;3778;42.572;23.426;2022-07-10T04:11:37;8.60;;;7.63;;
7473;SDS011;3778;42.572;23.426;2022-07-10T04:14:04;11.40;;;8.73;;
7473;SDS011;3778;42.572;23.426;2022-07-10T04:16:30;9.73;;;7.63;;
7473;SDS011;3778;42.572;23.426;2022-07-10T04:18:57;11.27;;;8.47;;
7473;SDS011;3778;42.572;23.426;2022-07-10T04:21:24;12.83;;;8.03;;
7473;SDS011;3778;42.572;23.426;2022-07-10T04:23:50;9.33;;;8.00;;
7473;SDS011;3778;42.572;23.426;2022-07-10T04:26:19;10.70;;;8.17;;
7473;SDS011;3778;42.572;23.426;2022-07-10T04:28:45;13.97;;;8.37;;
7473;SDS011;3778;42.572;23.426;2022-07-10T04:31:12;9.93;;;7.93;;
7473;SDS011;3778;42.572;23.426;2022-07-10T04:33:39;13.57;;;8.40;;
7473;SDS011;3778;42.572;23.426;2022-07-10T04:36:06;9.10;;;7.93;;
7473;SDS011;3778;42.572;23.426;2022-07-10T04:38:33;8.80;;;7.90;;
7473;SDS011;3778;42.572;23.426;2022-07-10T04:41:00;9.70;;;8.70;;
7473;SDS011;3778;42.572;23.426;2022-07-10T04:43:28;16.63;;;8.87;;
7473;SDS011;3778;42.572;23.426;2022-07-10T04:45:56;15.13;;;9.60;;
7473;SDS011;3778;42.572;23.426;2022-07-10T04:48:23;10.63;;;9.53;;
7473;SDS011;3778;42.572;23.426;2022-07-10T04:50:50;12.47;;;9.77;;
7473;SDS011;3778;42.572;23.426;2022-07-10T04:53:16;10.40;;;8.33;;
7473;SDS011;3778;42.572;23.426;2022-07-10T04:55:43;10.37;;;9.27;;
7473;SDS011;3778;42.572;23.426;2022-07-10T04:58:10;10.20;;;9.20;;
7473;SDS011;3778;42.572;23.426;2022-07-10T05:00:38;8.87;;;7.97;;
7473;SDS011;3778;42.572;23.426;2022-07-10T05:03:05;8.80;;;7.90;;
7473;SDS011;3778;42.572;23.426;2022-07-10T05:05:32;13.20;;;9.33;;
7473;SDS011;3778;42.572;23.426;2022-07-10T05:07:59;10.30;;;8.67;;
7473;SDS011;3778;42.572;23.426;2022-07-10T05:10:26;9.83;;;8.57;;
7473;SDS011;3778;42.572;23.426;2022-07-10T05:12:53;9.87;;;8.87;;
7473;SDS011;3778;42.572;23.426;2022-07-10T05:15:20;10.97;;;9.73;;
7473;SDS011;3778;42.572;23.426;2022-07-10T05:17:48;10.87;;;8.80;;
7473;SDS011;3778;42.572;23.426;2022-07-10T05:20:15;11.20;;;8.57;;
7473;SDS011;3778;42.572;23.426;2022-07-10T05:22:41;12.60;;;10.03;;
7473;SDS011;3778;42.572;23.426;2022-07-10T05:25:08;9.97;;;8.97;;
7473;SDS011;3778;42.572;23.426;2022-07-10T05:27:35;17.47;;;9.47;;
7473;SDS011;3778;42.572;23.426;2022-07-10T05:30:02;13.93;;;9.20;;
7473;SDS011;3778;42.572;23.426;2022-07-10T05:32:29;14.43;;;10.13;;
7473;SDS011;3778;42.572;23.426;2022-07-10T05:34:58;11.20;;;8.47;;
7473;SDS011;3778;42.572;23.426;2022-07-10T05:37:25;11.43;;;8.37;;
7473;SDS011;3778;42.572;23.426;2022-07-10T05:39:51;10.00;;;8.43;;
7473;SDS011;3778;42.572;23.426;2022-07-10T05:42:18;11.90;;;10.13;;
7473;SDS011;3778;42.572;23.426;2022-07-10T05:44:45;13.90;;;9.63;;
7473;SDS011;3778;42.572;23.426;2022-07-10T05:47:12;17.10;;;10.67;;
7473;SDS011;3778;42.572;23.426;2022-07-10T05:49:38;18.57;;;10.50;;
7473;SDS011;3778;42.572;23.426;2022-07-10T05:52:07;14.33;;;9.67;;
7473;SDS011;3778;42.572;23.426;2022-07-10T05:54:33;16.37;;;10.10;;
7473;SDS011;3778;42.572;23.426;2022-07-10T05:57:00;14.67;;;10.33;;
7473;SDS011;3778;42.572;23.426;2022-07-10T05:59:27;13.27;;;10.27;;
7473;SDS011;3778;42.572;23.426;2022-07-10T06:01:54;13.53;;;9.60;;
7473;SDS011;3778;42.572;23.426;2022-07-10T06:04:20;12.17;;;9.30;;
7473;SDS011;3778;42.572;23.426;2022-07-10T06:06:47;9.80;;;8.77;;
7473;SDS011;3778;42.572;23.426;2022-07-10T06:09:15;10.00;;;9.00;;
7473;SDS011;3778;42.572;23.426;2022-07-10T06:11:42;9.87;;;8.87;;
7473;SDS011;3778;42.572;23.426;2022-07-10T06:14:10;20.63;;;10.70;;
7473;SDS011;3778;42.572;23.426;2022-07-10T06:16:37;10.43;;;9.00;;
7473;SDS011;3778;42.572;23.426;2022-07-10T06:19:04;8.63;;;7.70;;
7473;SDS011;3778;42.572;23.426;2022-07-10T06:21:31;8.97;;;7.60;;
7473;SDS011;3778;42.572;23.426;2022-07-10T06:23:58;12.43;;;8.20;;
7473;SDS011;3778;42.572;23.426;2022-07-10T06:26:26;12.23;;;8.07;;
7473;SDS011;3778;42.572;23.426;2022-07-10T06:28:53;11.30;;;7.90;;
7473;SDS011;3778;42.572;23.426;2022-07-10T06:31:19;10.43;;;7.80;;
7473;SDS011;3778;42.572;23.426;2022-07-10T06:33:46;12.20;;;8.03;;
7473;SDS011;3778;42.572;23.426;2022-07-10T06:36:13;9.37;;;7.63;;
7473;SDS011;3778;42.572;23.426;2022-07-10T06:38:40;8.43;;;6.93;;
7473;SDS011;3778;42.572;23.426;2022-07-10T06:41:06;9.40;;;7.47;;
7473;SDS011;3778;42.572;23.426;2022-07-10T06:43:35;8.13;;;7.33;;
7473;SDS011;3778;42.572;23.426;2022-07-10T06:46:01;7.67;;;6.87;;
7473;SDS011;3778;42.572;23.426;2022-07-10T06:48:28;7.70;;;6.90;;
7473;SDS011;3778;42.572;23.426;2022-07-10T06:50:54;9.50;;;6.77;;
7473;SDS011;3778;42.572;23.426;2022-07-10T06:53:21;7.77;;;6.97;;
7473;SDS011;3778;42.572;23.426;2022-07-10T06:55:51;7.67;;;6.87;;
7473;SDS011;3778;42.572;23.426;2022-07-10T06:58:18;9.50;;;7.07;;
7473;SDS011;3778;42.572;23.426;2022-07-10T07:00:46;7.57;;;6.07;;
7473;SDS011;3778;42.572;23.426;2022-07-10T07:03:13;6.87;;;6.10;;
7473;SDS011;3778;42.572;23.426;2022-07-10T07:05:40;8.30;;;6.60;;
7473;SDS011;3778;42.572;23.426;2022-07-10T07:08:06;8.73;;;6.87;;
7473;SDS011;3778;42.572;23.426;2022-07-10T07:10:33;16.50;;;7.00;;
7473;SDS011;3778;42.572;23.426;2022-07-10T07:13:00;10.53;;;6.23;;
7473;SDS011;3778;42.572;23.426;2022-07-10T07:15:28;11.83;;;6.30;;
7473;SDS011;3778;42.572;23.426;2022-07-10T07:17:56;8.90;;;5.73;;
7473;SDS011;3778;42.572;23.426;2022-07-10T07:20:33;12.93;;;6.90;;
7473;SDS011;3778;42.572;23.426;2022-07-10T07:23:18;12.60;;;7.30;;
7473;SDS011;3778;42.572;23.426;2022-07-10T07:25:45;10.60;;;5.90;;
7473;SDS011;3778;42.572;23.426;2022-07-10T07:28:12;7.90;;;6.47;;
7473;SDS011;3778;42.572;23.426;2022-07-10T07:30:41;6.17;;;5.30;;
7473;SDS011;3778;42.572;23.426;2022-07-10T07:33:10;9.63;;;5.73;;
7473;SDS011;3778;42.572;23.426;2022-07-10T07:35:37;6.53;;;5.80;;
7473;SDS011;3778;42.572;23.426;2022-07-10T07:38:04;7.50;;;5.00;;
7473;SDS011;3778;42.572;23.426;2022-07-10T07:40:32;8.13;;;5.27;;
7473;SDS011;3778;42.572;23.426;2022-07-10T07:42:59;8.50;;;5.53;;
7473;SDS011;3778;42.572;23.426;2022-07-10T07:45:26;8.80;;;5.47;;
7473;SDS011;3778;42.572;23.426;2022-07-10T07:47:57;9.30;;;5.43;;
7473;SDS011;3778;42.572;23.426;2022-07-10T07:50:30;10.53;;;5.47;;
7473;SDS011;3778;42.572;23.426;2022-07-10T07:53:03;8.77;;;5.60;;
7473;SDS011;3778;42.572;23.426;2022-07-10T07:55:37;5.07;;;4.60;;
7473;SDS011;3778;42.572;23.426;2022-07-10T07:58:04;5.23;;;4.73;;
7473;SDS011;3778;42.572;23.426;2022-07-10T08:00:31;9.40;;;5.47;;
7473;SDS011;3778;42.572;23.426;2022-07-10T08:02:59;10.83;;;5.20;;
7473;SDS011;3778;42.572;23.426;2022-07-10T08:05:26;5.80;;;5.13;;
7473;SDS011;3778;42.572;23.426;2022-07-10T08:07:57;8.07;;;5.37;;
7473;SDS011;3778;42.572;23.426;2022-07-10T08:10:33;6.40;;;5.10;;
7473;SDS011;3778;42.572;23.426;2022-07-10T08:13:01;9.57;;;5.57;;
7473;SDS011;3778;42.572;23.426;2022-07-10T08:15:28;6.93;;;6.23;;
7473;SDS011;3778;42.572;23.426;2022-07-10T08:17:56;9.03;;;5.60;;
7473;SDS011;3778;42.572;23.426;2022-07-10T08:20:24;7.50;;;5.87;;
7473;SDS011;3778;42.572;23.426;2022-07-10T08:22:52;6.90;;;5.70;;
7473;SDS011;3778;42.572;23.426;2022-07-10T08:25:20;10.23;;;5.30;;
7473;SDS011;3778;42.572;23.426;2022-07-10T08:27:47;8.50;;;5.07;;
7473;SDS011;3778;42.572;23.426;2022-07-10T08:30:14;6.53;;;4.57;;
7473;SDS011;3778;42.572;23.426;2022-07-10T08:32:42;6.13;;;4.87;;
7473;SDS011;3778;42.572;23.426;2022-07-10T08:35:09;4.50;;;4.10;;
7473;SDS011;3778;42.572;23.426;2022-07-10T08:37:37;7.83;;;4.50;;
7473;SDS011;3778;42.572;23.426;2022-07-10T08:40:05;5.73;;;4.23;;
7473;SDS011;3778;42.572;23.426;2022-07-10T08:42:36;5.00;;;4.50;;
7473;SDS011;3778;42.572;23.426;2022-07-10T08:45:07;10.57;;;4.90;;
7473;SDS011;3778;42.572;23.426;2022-07-10T08:47:40;7.00;;;4.60;;
7473;SDS011;3778;42.572;23.426;2022-07-10T08:50:14;5.67;;;4.80;;
7473;SDS011;3778;42.572;23.426;2022-07-10T08:52:43;5.40;;;4.90;;
7473;SDS011;3778;42.572;23.426;2022-07-10T08:55:19;5.27;;;4.50;;
7473;SDS011;3778;42.572;23.426;2022-07-10T08:57:49;5.03;;;4.63;;
7473;SDS011;3778;42.572;23.426;2022-07-10T09:00:17;5.33;;;4.43;;
7473;SDS011;3778;42.572;23.426;2022-07-10T09:02:44;10.80;;;4.60;;
7473;SDS011;3778;42.572;23.426;2022-07-10T09:05:11;7.23;;;4.87;;
7473;SDS011;3778;42.572;23.426;2022-07-10T09:07:46;5.23;;;4.73;;
7473;SDS011;3778;42.572;23.426;2022-07-10T09:10:13;6.43;;;4.57;;
7473;SDS011;3778;42.572;23.426;2022-07-10T09:13:00;5.87;;;5.27;;
7473;SDS011;3778;42.572;23.426;2022-07-10T09:15:28;5.00;;;4.37;;
7473;SDS011;3778;42.572;23.426;2022-07-10T09:17:57;6.30;;;4.23;;
7473;SDS011;3778;42.572;23.426;2022-07-10T09:20:30;9.17;;;5.03;;
7473;SDS011;3778;42.572;23.426;2022-07-10T09:22:59;7.43;;;4.70;;
7473;SDS011;3778;42.572;23.426;2022-07-10T09:25:35;5.20;;;4.70;;
7473;SDS011;3778;42.572;23.426;2022-07-10T09:28:03;6.93;;;4.30;;
7473;SDS011;3778;42.572;23.426;2022-07-10T09:30:35;4.73;;;4.10;;
7473;SDS011;3778;42.572;23.426;2022-07-10T09:33:18;5.43;;;4.93;;
7473;SDS011;3778;42.572;23.426;2022-07-10T09:36:00;6.67;;;4.30;;
7473;SDS011;3778;42.572;23.426;2022-07-10T09:41:19;7.43;;;4.40;;
7473;SDS011;3778;42.572;23.426;2022-07-10T09:43:49;4.60;;;4.20;;
7473;SDS011;3778;42.572;23.426;2022-07-10T09:46:18;6.30;;;4.53;;
7473;SDS011;3778;42.572;23.426;2022-07-10T09:48:45;10.20;;;4.77;;
7473;SDS011;3778;42.572;23.426;2022-07-10T09:51:12;5.03;;;4.53;;
7473;SDS011;3778;42.572;23.426;2022-07-10T09:53:39;6.57;;;3.93;;
7473;SDS011;3778;42.572;23.426;2022-07-10T09:56:07;9.27;;;4.30;;
7473;SDS011;3778;42.572;23.426;2022-07-10T09:58:35;4.40;;;4.00;;
7473;SDS011;3778;42.572;23.426;2022-07-10T10:01:05;4.97;;;4.53;;
7473;SDS011;3778;42.572;23.426;2022-07-10T10:03:33;7.57;;;4.50;;
7473;SDS011;3778;42.572;23.426;2022-07-10T10:06:02;7.63;;;4.30;;
7473;SDS011;3778;42.572;23.426;2022-07-10T10:08:32;5.07;;;4.20;;
7473;SDS011;3778;42.572;23.426;2022-07-10T10:11:04;8.27;;;4.73;;
7473;SDS011;3778;42.572;23.426;2022-07-10T10:13:33;7.47;;;4.23;;
7473;SDS011;3778;42.572;23.426;2022-07-10T10:16:01;4.90;;;4.40;;
7473;SDS011;3778;42.572;23.426;2022-07-10T10:18:30;5.60;;;4.47;;
7473;SDS011;3778;42.572;23.426;2022-07-10T10:20:57;5.03;;;4.53;;
7473;SDS011;3778;42.572;23.426;2022-07-10T10:23:24;5.10;;;4.60;;
7473;SDS011;3778;42.572;23.426;2022-07-10T10:25:53;9.00;;;5.37;;
7473;SDS011;3778;42.572;23.426;2022-07-10T10:28:21;11.23;;;4.67;;
7473;SDS011;3778;42.572;23.426;2022-07-10T10:30:50;4.60;;;4.20;;
7473;SDS011;3778;42.572;23.426;2022-07-10T10:36:13;4.57;;;3.87;;
7473;SDS011;3778;42.572;23.426;2022-07-10T10:39:02;5.43;;;3.93;;
7473;SDS011;3778;42.572;23.426;2022-07-10T10:41:36;6.80;;;4.33;;
7473;SDS011;3778;42.572;23.426;2022-07-10T10:44:20;4.60;;;3.90;;
7473;SDS011;3778;42.572;23.426;2022-07-10T10:47:06;5.40;;;4.17;;
7473;SDS011;3778;42.572;23.426;2022-07-10T10:49:51;4.97;;;4.33;;
7473;SDS011;3778;42.572;23.426;2022-07-10T10:52:27;6.73;;;4.50;;
7473;SDS011;3778;42.572;23.426;2022-07-10T10:55:03;8.57;;;4.17;;
7473;SDS011;3778;42.572;23.426;2022-07-10T10:57:39;7.13;;;4.10;;
7473;SDS011;3778;42.572;23.426;2022-07-10T11:00:29;4.40;;;4.00;;
7473;SDS011;3778;42.572;23.426;2022-07-10T11:03:12;4.80;;;3.73;;
7473;SDS011;3778;42.572;23.426;2022-07-10T11:05:48;5.70;;;4.40;;
7473;SDS011;3778;42.572;23.426;2022-07-10T11:14:05;4.43;;;3.70;;
7473;SDS011;3778;42.572;23.426;2022-07-10T11:16:32;3.93;;;3.53;;
7473;SDS011;3778;42.572;23.426;2022-07-10T11:19:00;6.20;;;4.00;;
7473;SDS011;3778;42.572;23.426;2022-07-10T11:21:29;3.63;;;3.33;;
7473;SDS011;3778;42.572;23.426;2022-07-10T11:24:19;7.20;;;3.67;;
7473;SDS011;3778;42.572;23.426;2022-07-10T11:27:09;4.87;;;3.70;;
7473;SDS011;3778;42.572;23.426;2022-07-10T11:29:56;5.27;;;3.20;;
7473;SDS011;3778;42.572;23.426;2022-07-10T11:32:23;3.50;;;3.20;;
7473;SDS011;3778;42.572;23.426;2022-07-10T11:34:50;7.17;;;3.87;;
7473;SDS011;3778;42.572;23.426;2022-07-10T11:37:18;5.67;;;3.70;;
7473;SDS011;3778;42.572;23.426;2022-07-10T11:39:45;6.07;;;3.87;;
7473;SDS011;3778;42.572;23.426;2022-07-10T11:42:12;3.87;;;3.47;;
7473;SDS011;3778;42.572;23.426;2022-07-10T11:44:39;5.43;;;3.90;;
7473;SDS011;3778;42.572;23.426;2022-07-10T11:47:05;4.63;;;3.50;;
7473;SDS011;3778;42.572;23.426;2022-07-10T11:49:32;3.73;;;3.30;;
7473;SDS011;3778;42.572;23.426;2022-07-10T11:52:01;4.67;;;3.80;;
7473;SDS011;3778;42.572;23.426;2022-07-10T11:54:31;3.97;;;3.60;;
7473;SDS011;3778;42.572;23.426;2022-07-10T11:57:04;4.23;;;3.43;;
7473;SDS011;3778;42.572;23.426;2022-07-10T11:59:33;3.53;;;3.07;;
7473;SDS011;3778;42.572;23.426;2022-07-10T12:02:00;5.00;;;3.57;;
7473;SDS011;3778;42.572;23.426;2022-07-10T12:04:28;6.97;;;3.40;;
7473;SDS011;3778;42.572;23.426;2022-07-10T12:06:56;4.20;;;3.67;;
7473;SDS011;3778;42.572;23.426;2022-07-10T12:09:24;5.80;;;3.80;;
7473;SDS011;3778;42.572;23.426;2022-07-10T12:11:59;5.53;;;3.93;;
7473;SDS011;3778;42.572;23.426;2022-07-10T12:14:26;7.80;;;3.70;;
7473;SDS011;3778;42.572;23.426;2022-07-10T12:16:54;8.40;;;3.63;;
7473;SDS011;3778;42.572;23.426;2022-07-10T12:19:22;6.73;;;4.20;;
7473;SDS011;3778;42.572;23.426;2022-07-10T12:21:50;7.23;;;4.27;;
7473;SDS011;3778;42.572;23.426;2022-07-10T12:24:18;5.17;;;3.77;;
7473;SDS011;3778;42.572;23.426;2022-07-10T12:26:46;5.83;;;4.20;;
7473;SDS011;3778;42.572;23.426;2022-07-10T12:29:20;4.40;;;4.00;;
7473;SDS011;3778;42.572;23.426;2022-07-10T12:31:48;8.90;;;4.83;;
7473;SDS011;3778;42.572;23.426;2022-07-10T12:34:16;4.67;;;3.77;;
7473;SDS011;3778;42.572;23.426;2022-07-10T12:36:44;3.63;;;3.27;;
7473;SDS011;3778;42.572;23.426;2022-07-10T12:39:12;3.93;;;3.10;;
7473;SDS011;3778;42.572;23.426;2022-07-10T12:41:53;9.10;;;3.40;;
7473;SDS011;3778;42.572;23.426;2022-07-10T12:44:33;6.90;;;3.60;;
7473;SDS011;3778;42.572;23.426;2022-07-10T12:47:01;4.20;;;3.80;;
7473;SDS011;3778;42.572;23.426;2022-07-10T12:49:28;3.10;;;2.80;;
7473;SDS011;3778;42.572;23.426;2022-07-10T12:51:55;3.77;;;3.23;;
7473;SDS011;3778;42.572;23.426;2022-07-10T12:54:32;5.77;;;3.50;;
7473;SDS011;3778;42.572;23.426;2022-07-10T12:57:01;3.40;;;3.10;;
7473;SDS011;3778;42.572;23.426;2022-07-10T12:59:32;5.57;;;2.90;;
7473;SDS011;3778;42.572;23.426;2022-07-10T13:02:13;3.97;;;2.90;;
7473;SDS011;3778;42.572;23.426;2022-07-10T13:04:50;7.83;;;3.03;;
7473;SDS011;3778;42.572;23.426;2022-07-10T13:07:18;4.47;;;3.10;;
7473;SDS011;3778;42.572;23.426;2022-07-10T13:09:47;2.83;;;2.50;;
7473;SDS011;3778;42.572;23.426;2022-07-10T13:12:15;15.87;;;2.87;;
7473;SDS011;3778;42.572;23.426;2022-07-10T13:14:43;4.53;;;2.40;;
7473;SDS011;3778;42.572;23.426;2022-07-10T13:17:10;6.77;;;2.70;;
7473;SDS011;3778;42.572;23.426;2022-07-10T13:19:37;2.70;;;2.50;;
7473;SDS011;3778;42.572;23.426;2022-07-10T13:22:03;5.30;;;2.40;;
7473;SDS011;3778;42.572;23.426;2022-07-10T13:24:30;3.03;;;2.73;;
7473;SDS011;3778;42.572;23.426;2022-07-10T13:26:57;3.60;;;2.37;;
7473;SDS011;3778;42.572;23.426;2022-07-10T13:29:24;4.97;;;2.50;;
7473;SDS011;3778;42.572;23.426;2022-07-10T13:31:52;2.43;;;2.20;;
7473;SDS011;3778;42.572;23.426;2022-07-10T13:34:19;3.00;;;2.70;;
7473;SDS011;3778;42.572;23.426;2022-07-10T13:36:45;2.80;;;2.07;;
7473;SDS011;3778;42.572;23.426;2022-07-10T13:39:12;2.27;;;2.07;;
7473;SDS011;3778;42.572;23.426;2022-07-10T13:41:39;3.00;;;2.30;;
7473;SDS011;3778;42.572;23.426;2022-07-10T13:44:06;2.87;;;2.23;;
7473;SDS011;3778;42.572;23.426;2022-07-10T13:46:32;3.13;;;2.77;;
7473;SDS011;3778;42.572;23.426;2022-07-10T13:49:01;4.00;;;2.60;;
7473;SDS011;3778;42.572;23.426;2022-07-10T13:51:28;4.43;;;2.80;;
7473;SDS011;3778;42.572;23.426;2022-07-10T13:53:55;4.47;;;3.00;;
7473;SDS011;3778;42.572;23.426;2022-07-10T13:56:21;7.03;;;3.67;;
7473;SDS011;3778;42.572;23.426;2022-07-10T13:58:48;4.53;;;3.07;;
7473;SDS011;3778;42.572;23.426;2022-07-10T14:01:15;5.80;;;2.20;;
7473;SDS011;3778;42.572;23.426;2022-07-10T14:03:42;5.17;;;1.93;;
7473;SDS011;3778;42.572;23.426;2022-07-10T14:06:10;2.77;;;1.93;;
7473;SDS011;3778;42.572;23.426;2022-07-10T14:08:37;3.60;;;1.80;;
7473;SDS011;3778;42.572;23.426;2022-07-10T14:11:04;1.97;;;1.77;;
7473;SDS011;3778;42.572;23.426;2022-07-10T14:13:30;4.90;;;1.93;;
7473;SDS011;3778;42.572;23.426;2022-07-10T14:15:57;2.67;;;2.07;;
7473;SDS011;3778;42.572;23.426;2022-07-10T14:18:24;1.90;;;1.70;;
7473;SDS011;3778;42.572;23.426;2022-07-10T14:21:12;3.83;;;2.10;;
7473;SDS011;3778;42.572;23.426;2022-07-10T14:23:39;5.83;;;2.10;;
7473;SDS011;3778;42.572;23.426;2022-07-10T14:26:09;3.23;;;1.97;;
7473;SDS011;3778;42.572;23.426;2022-07-10T14:28:36;1.93;;;1.73;;
7473;SDS011;3778;42.572;23.426;2022-07-10T14:31:03;3.50;;;2.33;;
7473;SDS011;3778;42.572;23.426;2022-07-10T14:33:30;1.77;;;1.60;;
7473;SDS011;3778;42.572;23.426;2022-07-10T14:35:57;6.00;;;1.90;;
7473;SDS011;3778;42.572;23.426;2022-07-10T14:38:26;1.80;;;1.70;;
7473;SDS011;3778;42.572;23.426;2022-07-10T14:40:53;2.73;;;1.80;;
7473;SDS011;3778;42.572;23.426;2022-07-10T14:43:20;2.90;;;1.60;;
7473;SDS011;3778;42.572;23.426;2022-07-10T14:45:47;3.17;;;2.23;;
7473;SDS011;3778;42.572;23.426;2022-07-10T14:48:14;2.10;;;1.90;;
7473;SDS011;3778;42.572;23.426;2022-07-10T14:50:41;2.93;;;1.87;;
7473;SDS011;3778;42.572;23.426;2022-07-10T14:53:08;2.50;;;1.73;;
7473;SDS011;3778;42.572;23.426;2022-07-10T14:55:37;3.27;;;2.00;;
7473;SDS011;3778;42.572;23.426;2022-07-10T14:58:04;3.30;;;1.70;;
7473;SDS011;3778;42.572;23.426;2022-07-10T15:00:31;2.20;;;2.00;;
7473;SDS011;3778;42.572;23.426;2022-07-10T15:02:58;4.00;;;2.13;;
7473;SDS011;3778;42.572;23.426;2022-07-10T15:05:25;3.90;;;2.17;;
7473;SDS011;3778;42.572;23.426;2022-07-10T15:07:52;4.10;;;2.00;;
7473;SDS011;3778;42.572;23.426;2022-07-10T15:10:19;3.40;;;2.20;;
7473;SDS011;3778;42.572;23.426;2022-07-10T15:12:47;2.40;;;1.63;;